Grantham, United Kingdom
Current Conditions -  °F | °C
As of 5:50 PM on Thursday 27 Nov 2014 (Local Time) from EGYD Reporting Station
Broken Clouds Broken Clouds  
Wind Chill: 37°   Ceiling: 21000
Heat Index: 41°   Visibility: 2.9mi
Dew Point: 41°   Wind: 6mph
Humidity: 100%   Direction: 140°SE
Pressure: 29.59"   Gusts: NA
Location:  52.92°N, 0.64°W
Report Text: EGYD 271750Z AUTO 14005KT 4700 // FEW120/// BKN210/// 05/05 Q1002
Loading
Personal Weather Stations






























Interactive Weather Map New forecast layout! Learn more

10-Day Weather Forecast

Advertisements
Track Severe Weather on mobile